createdAt,value
2023-04-23T00:01:08.674Z,90.54
2023-04-23T00:03:37.414Z,90.98
2023-04-23T00:06:06.213Z,91.32
2023-04-23T00:08:34.414Z,90.81
2023-04-23T00:11:01.389Z,91.40
2023-04-23T00:13:28.304Z,91.19
2023-04-23T00:15:55.418Z,91.20
2023-04-23T00:18:21.935Z,91.25
2023-04-23T00:20:48.269Z,91.53
2023-04-23T00:23:14.731Z,91.88
2023-04-23T00:25:41.089Z,91.91
2023-04-23T00:28:07.492Z,92.09
2023-04-23T00:30:33.896Z,92.21
2023-04-23T00:33:00.616Z,92.03
2023-04-23T00:35:27.175Z,91.32
2023-04-23T00:37:53.550Z,91.42
2023-04-23T00:40:21.178Z,91.64
2023-04-23T00:42:49.091Z,92.03
2023-04-23T00:45:16.012Z,92.12
2023-04-23T00:47:43.322Z,91.87
2023-04-23T00:50:11.320Z,92.28
2023-04-23T00:52:39.036Z,92.05
2023-04-23T00:55:05.919Z,92.01
2023-04-23T00:57:33.196Z,92.04
2023-04-23T01:00:00.294Z,92.12
2023-04-23T01:02:28.454Z,92.18
2023-04-23T01:04:55.959Z,92.25
2023-04-23T01:07:22.738Z,92.46
2023-04-23T01:09:51.316Z,92.03
2023-04-23T01:12:18.824Z,92.15
2023-04-23T01:14:45.883Z,92.12
2023-04-23T01:17:12.340Z,92.04
2023-04-23T01:19:39.275Z,91.95
2023-04-23T01:22:13.649Z,91.26
2023-04-23T01:24:42.559Z,91.58
2023-04-23T01:27:11.053Z,91.60
2023-04-23T01:29:38.933Z,91.35
2023-04-23T01:32:05.453Z,91.39
2023-04-23T01:34:32.635Z,91.48
2023-04-23T01:36:59.527Z,91.50
2023-04-23T01:39:26.041Z,91.69
2023-04-23T01:41:53.138Z,91.89
2023-04-23T01:44:19.511Z,91.67
2023-04-23T01:46:46.621Z,91.39
2023-04-23T01:49:14.379Z,91.72
2023-04-23T01:51:42.066Z,91.90
2023-04-23T01:54:08.425Z,91.78
2023-04-23T01:56:35.972Z,91.95
2023-04-23T01:59:02.421Z,91.81
2023-04-23T02:01:43.513Z,91.60
2023-04-23T02:04:12.515Z,91.73
2023-04-23T02:06:39.864Z,91.81
2023-04-23T02:09:07.255Z,91.76
2023-04-23T02:11:33.900Z,91.76
2023-04-23T02:14:02.016Z,91.98
2023-04-23T02:16:29.313Z,91.81
2023-04-23T02:18:55.811Z,91.99
2023-04-23T02:21:27.252Z,92.19
2023-04-23T02:23:54.045Z,92.10
2023-04-23T02:26:20.542Z,92.08
2023-04-23T02:28:46.895Z,92.18
2023-04-23T02:31:13.698Z,91.96
2023-04-23T02:33:42.526Z,91.96
2023-04-23T02:36:11.564Z,92.00
2023-04-23T02:38:41.388Z,91.53
2023-04-23T02:41:08.276Z,92.00
2023-04-23T02:43:34.727Z,92.07
2023-04-23T02:46:07.861Z,92.11
2023-04-23T02:48:40.378Z,92.17
2023-04-23T02:51:09.623Z,92.23
2023-04-23T02:53:36.094Z,92.35
2023-04-23T02:56:02.892Z,91.96
2023-04-23T02:58:30.666Z,92.38
2023-04-23T03:00:59.760Z,92.43
2023-04-23T03:03:31.718Z,92.37
2023-04-23T03:06:00.154Z,92.57
2023-04-23T03:08:27.439Z,92.32
2023-04-23T03:10:54.213Z,92.49
2023-04-23T03:13:21.027Z,93.02
2023-04-23T03:15:48.664Z,92.90
2023-04-23T03:18:15.104Z,93.12
2023-04-23T03:20:42.491Z,93.50
2023-04-23T03:23:09.100Z,93.18
2023-04-23T03:25:35.534Z,93.93
2023-04-23T03:28:02.038Z,93.93
2023-04-23T03:30:29.953Z,94.13
2023-04-23T03:32:56.995Z,94.49
2023-04-23T03:35:24.802Z,94.69
2023-04-23T03:37:52.766Z,94.51
2023-04-23T03:40:20.394Z,94.86
2023-04-23T03:42:49.340Z,95.05
2023-04-23T03:45:18.832Z,95.10
2023-04-23T03:47:45.920Z,95.41
2023-04-23T03:50:17.241Z,95.26
2023-04-23T03:52:45.201Z,95.42
2023-04-23T03:55:20.767Z,95.50
2023-04-23T03:57:47.609Z,95.38
2023-04-23T04:00:22.923Z,95.48
2023-04-23T04:02:49.518Z,95.39
2023-04-23T04:05:16.732Z,95.58
2023-04-23T04:07:44.881Z,95.83
2023-04-23T04:10:11.260Z,96.03
2023-04-23T04:12:37.685Z,96.08
2023-04-23T04:15:05.073Z,95.82
2023-04-23T04:17:31.471Z,96.12
2023-04-23T04:19:57.865Z,96.01
2023-04-23T04:22:24.299Z,95.84
2023-04-23T04:24:52.480Z,95.77
2023-04-23T04:27:18.900Z,95.62
2023-04-23T04:29:45.270Z,95.81
2023-04-23T04:32:13.434Z,96.03
2023-04-23T04:34:40.030Z,96.15
2023-04-23T04:37:06.780Z,96.12
2023-04-23T04:39:33.107Z,95.90
2023-04-23T04:41:59.885Z,96.35
2023-04-23T04:44:26.338Z,96.05
2023-04-23T04:46:52.784Z,96.28
2023-04-23T04:49:19.500Z,95.97
2023-04-23T04:51:46.008Z,96.20
2023-04-23T04:54:12.375Z,96.07
2023-04-23T04:56:38.994Z,96.38
2023-04-23T04:59:05.513Z,96.44
2023-04-23T05:01:33.267Z,96.06
2023-04-23T05:03:59.923Z,96.46
2023-04-23T05:06:28.534Z,96.48
2023-04-23T05:08:54.906Z,96.56
2023-04-23T05:11:21.330Z,96.61
2023-04-23T05:13:48.326Z,96.56
2023-04-23T05:16:14.996Z,96.80
2023-04-23T05:18:42.109Z,96.72
2023-04-23T05:21:09.013Z,96.86
2023-04-23T05:23:36.172Z,97.43
2023-04-23T05:26:03.609Z,97.38
2023-04-23T05:28:30.961Z,97.23
2023-04-23T05:30:58.268Z,97.64
2023-04-23T05:33:30.651Z,97.33
2023-04-23T05:35:59.651Z,98.45
2023-04-23T05:38:26.052Z,98.58
2023-04-23T05:40:52.648Z,98.59
2023-04-23T05:43:19.043Z,98.77
2023-04-23T05:45:45.408Z,98.60
2023-04-23T05:48:11.825Z,97.95
2023-04-23T05:50:38.315Z,97.49
2023-04-23T05:53:04.689Z,97.53
2023-04-23T05:55:31.177Z,97.40
2023-04-23T05:57:57.534Z,97.24
2023-04-23T06:00:23.884Z,97.15
2023-04-23T06:02:50.455Z,96.86
2023-04-23T06:05:17.094Z,96.31
2023-04-23T06:07:43.675Z,95.67
2023-04-23T06:10:10.841Z,94.91
2023-04-23T06:12:41.954Z,93.96
2023-04-23T06:15:09.274Z,93.81
2023-04-23T06:17:36.121Z,93.45
2023-04-23T06:20:02.821Z,92.50
2023-04-23T06:22:29.138Z,92.07
2023-04-23T06:24:55.865Z,91.41
2023-04-23T06:27:22.188Z,91.39
2023-04-23T06:29:51.439Z,90.94
2023-04-23T06:32:20.416Z,91.53
2023-04-23T06:34:59.359Z,90.98
2023-04-23T06:37:29.650Z,90.23
2023-04-23T06:39:56.366Z,90.75
2023-04-23T06:42:22.688Z,90.97
2023-04-23T06:45:05.883Z,90.62
2023-04-23T06:47:32.701Z,90.74
2023-04-23T06:50:00.153Z,90.61
2023-04-23T06:52:26.957Z,88.90
2023-04-23T06:54:53.540Z,88.97
2023-04-23T06:57:20.183Z,88.42
2023-04-23T06:59:46.582Z,87.75
2023-04-23T07:02:13.662Z,88.01
2023-04-23T07:04:40.810Z,87.24
2023-04-23T07:07:07.629Z,87.10
2023-04-23T07:09:34.020Z,86.92
2023-04-23T07:12:01.500Z,86.47
2023-04-23T07:14:27.910Z,85.81
2023-04-23T07:16:54.545Z,86.19
2023-04-23T07:19:20.898Z,85.49
2023-04-23T07:21:47.205Z,85.50
2023-04-23T07:24:13.599Z,85.28
2023-04-23T07:26:39.952Z,84.77
2023-04-23T07:29:07.792Z,83.33
2023-04-23T07:31:34.256Z,84.33
2023-04-23T07:34:01.174Z,82.31
2023-04-23T07:36:27.771Z,81.64
2023-04-23T07:38:54.268Z,81.02
2023-04-23T07:41:20.769Z,80.09
2023-04-23T07:43:47.127Z,80.39
2023-04-23T07:46:13.522Z,80.10
2023-04-23T07:48:39.935Z,78.94
2023-04-23T07:51:06.603Z,77.92
2023-04-23T07:53:33.344Z,76.98
2023-04-23T07:56:00.068Z,76.11
2023-04-23T07:58:26.514Z,75.21
2023-04-23T08:00:53.028Z,74.48
2023-04-23T08:03:19.670Z,73.66
2023-04-23T08:05:46.613Z,74.60
2023-04-23T08:08:13.483Z,73.81
2023-04-23T08:10:40.310Z,72.24
2023-04-23T08:13:06.883Z,72.21
2023-04-23T08:15:33.230Z,72.14
2023-04-23T08:17:59.620Z,72.71
2023-04-23T08:20:26.444Z,71.41
2023-04-23T08:22:53.640Z,71.35
2023-04-23T08:25:21.016Z,69.93
2023-04-23T08:27:47.433Z,70.20
2023-04-23T08:30:14.146Z,70.18
2023-04-23T08:32:40.720Z,68.93
2023-04-23T08:35:08.180Z,69.83
2023-04-23T08:37:34.653Z,69.55
2023-04-23T08:40:01.324Z,69.14
2023-04-23T08:42:36.462Z,68.64
2023-04-23T08:45:04.421Z,67.30
2023-04-23T08:47:32.459Z,68.54
2023-04-23T08:49:59.423Z,67.69
2023-04-23T08:52:29.027Z,66.37
2023-04-23T08:55:01.436Z,65.81
2023-04-23T08:57:28.032Z,68.03
2023-04-23T08:59:55.307Z,65.51
2023-04-23T09:02:22.972Z,65.61
2023-04-23T09:04:51.859Z,64.66
2023-04-23T09:07:19.013Z,64.92
2023-04-23T09:09:45.498Z,64.76
2023-04-23T09:12:11.860Z,64.61
2023-04-23T09:14:38.180Z,64.05
2023-04-23T09:17:04.603Z,62.35
2023-04-23T09:19:32.340Z,64.62
2023-04-23T09:22:01.050Z,63.81
2023-04-23T09:24:28.043Z,62.29
2023-04-23T09:26:54.910Z,62.27
2023-04-23T09:29:23.568Z,63.05
2023-04-23T09:31:53.000Z,63.50
2023-04-23T09:34:20.602Z,64.17
2023-04-23T09:36:51.898Z,64.82
2023-04-23T09:39:21.954Z,63.08
2023-04-23T09:41:48.537Z,64.71
2023-04-23T09:44:19.590Z,63.57
2023-04-23T09:46:45.983Z,64.96
2023-04-23T09:49:13.107Z,63.37
2023-04-23T09:51:41.079Z,62.10
2023-04-23T09:54:24.134Z,61.82
2023-04-23T09:56:53.598Z,60.58
2023-04-23T09:59:24.727Z,60.48
2023-04-23T10:01:56.823Z,58.35
2023-04-23T10:04:25.398Z,59.21
2023-04-23T10:07:17.422Z,56.35
2023-04-23T10:09:46.240Z,56.43
2023-04-23T10:12:28.934Z,59.27
2023-04-23T10:15:00.186Z,55.76
2023-04-23T10:17:27.156Z,58.41
2023-04-23T10:19:55.473Z,57.18
2023-04-23T10:22:22.839Z,54.70
2023-04-23T10:24:55.763Z,55.07
2023-04-23T10:27:36.702Z,55.82
2023-04-23T10:30:11.754Z,53.85
2023-04-23T10:32:38.836Z,56.91
2023-04-23T10:35:07.238Z,55.82
2023-04-23T10:37:35.743Z,56.79
2023-04-23T10:40:29.674Z,56.21
2023-04-23T10:42:56.168Z,57.33
2023-04-23T10:45:25.589Z,57.66
2023-04-23T10:47:55.277Z,58.15
2023-04-23T10:50:36.090Z,58.07
2023-04-23T10:53:03.656Z,56.70
2023-04-23T10:55:32.014Z,53.33
2023-04-23T10:58:03.891Z,52.75
2023-04-23T11:00:45.504Z,52.15
2023-04-23T11:03:43.993Z,52.66
2023-04-23T11:06:20.531Z,52.71
2023-04-23T11:08:54.330Z,52.76
2023-04-23T11:11:39.621Z,51.94
2023-04-23T11:14:15.608Z,52.63
2023-04-23T11:16:42.190Z,53.76
2023-04-23T11:19:12.294Z,53.19
2023-04-23T11:21:58.383Z,54.27
2023-04-23T11:24:26.900Z,53.55
2023-04-23T11:26:54.422Z,53.76
2023-04-23T11:29:23.660Z,55.10
2023-04-23T11:32:01.740Z,54.59
2023-04-23T11:34:29.440Z,56.28
2023-04-23T11:36:58.703Z,60.49
2023-04-23T11:39:25.841Z,61.16
2023-04-23T11:41:52.941Z,63.56
2023-04-23T11:44:21.204Z,68.13
2023-04-23T11:46:49.349Z,67.06
2023-04-23T11:49:19.679Z,69.81
2023-04-23T11:51:46.688Z,71.51
2023-04-23T11:54:13.803Z,70.39
2023-04-23T11:56:41.092Z,71.11
2023-04-23T11:59:08.040Z,69.05
2023-04-23T12:01:41.799Z,67.94
2023-04-23T12:04:16.698Z,67.79
2023-04-23T12:06:45.640Z,67.85
2023-04-23T12:09:13.250Z,68.40
2023-04-23T12:11:41.655Z,69.97
2023-04-23T12:14:12.629Z,67.85
2023-04-23T12:16:45.628Z,67.73
2023-04-23T12:19:18.843Z,70.46
2023-04-23T12:21:54.885Z,65.81
2023-04-23T12:24:23.033Z,66.47
2023-04-23T12:26:54.504Z,67.15
2023-04-23T12:29:22.817Z,66.22
2023-04-23T12:31:50.732Z,68.26
2023-04-23T12:34:17.526Z,66.05
2023-04-23T12:36:47.194Z,65.62
2023-04-23T12:39:29.593Z,66.75
2023-04-23T12:42:04.861Z,65.78
2023-04-23T12:44:34.366Z,64.25
2023-04-23T12:47:04.633Z,66.58
2023-04-23T12:49:32.131Z,64.66
2023-04-23T12:52:01.417Z,62.75
2023-04-23T12:54:29.752Z,63.13
2023-04-23T12:56:56.210Z,60.74
2023-04-23T12:59:22.987Z,59.44
2023-04-23T13:01:50.812Z,59.36
2023-04-23T13:04:17.312Z,56.51
2023-04-23T13:06:43.728Z,57.20
2023-04-23T13:09:10.326Z,55.99
2023-04-23T13:11:38.254Z,56.12
2023-04-23T13:14:05.409Z,56.17
2023-04-23T13:16:32.257Z,55.65
2023-04-23T13:18:59.817Z,52.70
2023-04-23T13:21:27.002Z,51.10
2023-04-23T13:23:53.421Z,51.11
2023-04-23T13:26:19.891Z,51.06
2023-04-23T13:28:46.228Z,49.10
2023-04-23T13:31:13.480Z,48.19
2023-04-23T13:33:40.746Z,47.61
2023-04-23T13:36:08.007Z,47.07
2023-04-23T13:38:35.142Z,48.95
2023-04-23T13:41:01.463Z,44.37
2023-04-23T13:43:27.803Z,48.33
2023-04-23T13:45:54.836Z,44.19
2023-04-23T13:48:21.498Z,42.77
2023-04-23T13:50:47.815Z,42.95
2023-04-23T13:53:14.138Z,45.08
2023-04-23T13:55:40.533Z,43.99
2023-04-23T13:58:07.136Z,45.13
2023-04-23T14:00:33.538Z,46.56
2023-04-23T14:03:00.027Z,45.18
2023-04-23T14:05:26.443Z,45.57
2023-04-23T14:07:52.882Z,46.64
2023-04-23T14:10:19.375Z,45.89
2023-04-23T14:12:46.592Z,46.34
2023-04-23T14:15:13.149Z,44.80
2023-04-23T14:17:40.633Z,45.47
2023-04-23T14:20:07.826Z,44.83
2023-04-23T14:22:34.200Z,45.63
2023-04-23T14:25:09.670Z,45.24
2023-04-23T14:27:44.747Z,43.86
2023-04-23T14:30:20.324Z,43.72
2023-04-23T14:32:49.723Z,44.94
2023-04-23T14:35:16.871Z,43.51
2023-04-23T14:37:45.243Z,45.85
2023-04-23T14:40:15.607Z,45.10
2023-04-23T14:42:41.954Z,45.58
2023-04-23T14:45:08.893Z,45.60
2023-04-23T14:47:35.285Z,44.57
2023-04-23T14:50:01.840Z,44.02
2023-04-23T14:52:28.263Z,44.29
2023-04-23T14:54:55.857Z,44.33
2023-04-23T14:57:23.453Z,43.45
2023-04-23T14:59:49.787Z,42.80
2023-04-23T15:02:16.352Z,43.79
2023-04-23T15:04:43.020Z,44.42
2023-04-23T15:07:09.338Z,44.79
2023-04-23T15:09:35.778Z,45.14
2023-04-23T15:12:03.784Z,44.69
2023-04-23T15:14:37.481Z,43.33
2023-04-23T15:17:03.839Z,43.23
2023-04-23T15:19:31.225Z,42.93
2023-04-23T15:21:57.627Z,44.38
2023-04-23T15:24:23.943Z,45.70
2023-04-23T15:26:53.085Z,46.29
2023-04-23T15:29:19.512Z,45.25
2023-04-23T15:31:45.931Z,45.21
2023-04-23T15:34:12.480Z,45.09
2023-04-23T15:36:38.868Z,45.19
2023-04-23T15:39:06.924Z,47.69
2023-04-23T15:41:34.781Z,44.71
2023-04-23T15:44:01.641Z,44.17
2023-04-23T15:46:27.962Z,45.00
2023-04-23T15:48:54.278Z,46.48
2023-04-23T15:51:20.683Z,46.39
2023-04-23T15:53:47.121Z,49.29
2023-04-23T15:56:13.508Z,51.80
2023-04-23T15:58:39.875Z,49.54
2023-04-23T16:01:07.152Z,50.10
2023-04-23T16:03:34.258Z,52.44
2023-04-23T16:06:00.861Z,54.38
2023-04-23T16:08:27.244Z,54.44
2023-04-23T16:10:54.778Z,55.98
2023-04-23T16:13:21.458Z,56.76
2023-04-23T16:15:47.886Z,56.75
2023-04-23T16:18:14.276Z,58.82
2023-04-23T16:20:41.138Z,57.83
2023-04-23T16:23:07.523Z,59.87
2023-04-23T16:25:33.866Z,59.61
2023-04-23T16:28:00.828Z,61.04
2023-04-23T16:30:27.197Z,64.12
2023-04-23T16:32:53.687Z,65.86
2023-04-23T16:35:20.129Z,67.45
2023-04-23T16:37:46.603Z,70.16
2023-04-23T16:40:15.129Z,71.30
2023-04-23T16:42:42.542Z,72.51
2023-04-23T16:45:09.161Z,73.62
2023-04-23T16:47:35.847Z,75.42
2023-04-23T16:50:02.818Z,76.13
2023-04-23T16:52:29.259Z,76.38
2023-04-23T16:54:55.656Z,76.49
2023-04-23T16:57:22.654Z,76.61
2023-04-23T16:59:48.992Z,77.07
2023-04-23T17:02:15.437Z,77.95
2023-04-23T17:04:42.105Z,78.25
2023-04-23T17:07:08.787Z,78.77
2023-04-23T17:09:35.108Z,79.02
2023-04-23T17:12:02.487Z,80.00
2023-04-23T17:14:28.884Z,80.70
2023-04-23T17:16:56.084Z,81.45
2023-04-23T17:19:22.414Z,81.46
2023-04-23T17:21:48.811Z,81.75
2023-04-23T17:24:15.212Z,81.60
2023-04-23T17:26:41.587Z,83.03
2023-04-23T17:29:08.028Z,84.33
2023-04-23T17:31:36.171Z,84.78
2023-04-23T17:34:04.652Z,84.29
2023-04-23T17:36:31.094Z,84.74
2023-04-23T17:38:57.519Z,85.65
2023-04-23T17:41:23.938Z,87.08
2023-04-23T17:43:50.496Z,89.77
2023-04-23T17:46:16.874Z,89.09
2023-04-23T17:48:43.372Z,90.02
2023-04-23T17:51:09.732Z,90.17
2023-04-23T17:53:36.334Z,90.65
2023-04-23T17:56:03.250Z,91.20
2023-04-23T17:58:30.845Z,90.95
2023-04-23T18:00:57.371Z,91.71
2023-04-23T18:03:24.283Z,92.52
2023-04-23T18:05:50.852Z,92.02
2023-04-23T18:08:19.291Z,93.06
2023-04-23T18:10:46.135Z,92.46
2023-04-23T18:13:13.368Z,93.11
2023-04-23T18:15:41.483Z,93.63
2023-04-23T18:18:09.393Z,92.75
2023-04-23T18:20:38.300Z,93.36
2023-04-23T18:23:06.272Z,93.74
2023-04-23T18:25:32.679Z,93.55
2023-04-23T18:27:59.102Z,93.82
2023-04-23T18:30:25.687Z,94.21
2023-04-23T18:33:02.130Z,94.26
2023-04-23T18:35:28.562Z,94.43
2023-04-23T18:38:02.608Z,94.00
2023-04-23T18:40:28.979Z,93.82
2023-04-23T18:42:55.306Z,93.89
2023-04-23T18:45:21.765Z,93.66
2023-04-23T18:47:57.600Z,93.49
2023-04-23T18:50:30.097Z,93.66
2023-04-23T18:52:56.513Z,94.17
2023-04-23T18:55:22.834Z,93.92
2023-04-23T18:57:49.154Z,94.18
2023-04-23T19:00:15.817Z,93.83
2023-04-23T19:02:42.362Z,94.06
2023-04-23T19:05:09.022Z,93.49
2023-04-23T19:07:37.136Z,93.77
2023-04-23T19:10:03.753Z,94.27
2023-04-23T19:12:30.297Z,94.04
2023-04-23T19:14:56.634Z,94.08
2023-04-23T19:17:23.009Z,93.77
2023-04-23T19:19:49.431Z,93.77
2023-04-23T19:22:15.809Z,94.34
2023-04-23T19:24:42.123Z,93.52
2023-04-23T19:27:09.024Z,93.63
2023-04-23T19:29:35.467Z,93.59
2023-04-23T19:32:01.824Z,93.25
2023-04-23T19:34:28.143Z,94.18
2023-04-23T19:36:54.473Z,93.69
2023-04-23T19:39:23.306Z,94.26
2023-04-23T19:41:49.636Z,94.27
2023-04-23T19:44:15.998Z,93.84
2023-04-23T19:46:42.345Z,93.87
2023-04-23T19:49:08.783Z,94.64
2023-04-23T19:51:37.833Z,94.64
2023-04-23T19:54:05.176Z,94.25
2023-04-23T19:56:31.540Z,93.91
2023-04-23T19:58:57.897Z,93.55
2023-04-23T20:01:25.383Z,92.71
2023-04-23T20:03:53.506Z,90.94
2023-04-23T20:06:20.793Z,91.59
2023-04-23T20:09:06.606Z,91.58
2023-04-23T20:11:36.398Z,90.70
2023-04-23T20:14:03.653Z,91.53
2023-04-23T20:16:30.490Z,90.29
2023-04-23T20:18:57.605Z,89.78
2023-04-23T20:21:24.620Z,90.21
2023-04-23T20:23:51.244Z,88.96
2023-04-23T20:26:19.094Z,88.52
2023-04-23T20:28:47.273Z,87.35
2023-04-23T20:31:14.345Z,87.68
2023-04-23T20:33:40.825Z,87.09
2023-04-23T20:36:09.769Z,87.14
2023-04-23T20:38:37.941Z,86.95
2023-04-23T20:41:05.594Z,85.58
2023-04-23T20:43:34.121Z,86.73
2023-04-23T20:46:01.815Z,86.66
2023-04-23T20:48:31.872Z,85.23
2023-04-23T20:50:58.298Z,84.23
2023-04-23T20:53:25.624Z,83.44
2023-04-23T20:55:52.088Z,82.09
2023-04-23T20:58:18.671Z,83.36
2023-04-23T21:00:45.003Z,83.15
2023-04-23T21:03:11.799Z,82.09
2023-04-23T21:05:44.134Z,83.73
2023-04-23T21:08:11.150Z,84.05
2023-04-23T21:10:41.344Z,84.99
2023-04-23T21:13:10.971Z,84.69
2023-04-23T21:15:38.406Z,84.93
2023-04-23T21:18:05.619Z,85.49
2023-04-23T21:20:32.153Z,85.45
2023-04-23T21:22:58.478Z,85.15
2023-04-23T21:25:26.583Z,85.72
2023-04-23T21:27:54.764Z,85.49
2023-04-23T21:30:30.645Z,83.93
2023-04-23T21:32:57.033Z,83.72
2023-04-23T21:35:23.425Z,83.72
2023-04-23T21:37:49.803Z,82.98
2023-04-23T21:40:16.290Z,82.32
2023-04-23T21:42:44.728Z,81.75
2023-04-23T21:45:11.333Z,82.62
2023-04-23T21:47:37.698Z,81.63
2023-04-23T21:50:05.053Z,81.59
2023-04-23T21:52:31.457Z,81.35
2023-04-23T21:54:57.833Z,80.74
2023-04-23T21:57:24.242Z,81.61
2023-04-23T21:59:50.704Z,81.72
2023-04-23T22:02:17.232Z,80.89
2023-04-23T22:04:44.602Z,81.06
2023-04-23T22:07:13.536Z,80.98
2023-04-23T22:09:41.415Z,80.67
2023-04-23T22:12:08.702Z,79.23
2023-04-23T22:14:35.257Z,79.85
2023-04-23T22:17:03.054Z,79.77
2023-04-23T22:19:31.284Z,79.69
2023-04-23T22:21:57.986Z,79.03
2023-04-23T22:24:24.572Z,78.69
2023-04-23T22:26:51.023Z,77.74
2023-04-23T22:29:17.424Z,77.26
2023-04-23T22:31:43.917Z,77.23
2023-04-23T22:34:10.490Z,77.14
2023-04-23T22:36:36.972Z,77.53
2023-04-23T22:39:05.633Z,76.71
2023-04-23T22:41:33.669Z,77.38
2023-04-23T22:44:00.756Z,76.98
2023-04-23T22:46:27.785Z,77.21
2023-04-23T22:48:54.651Z,77.32
2023-04-23T22:51:21.002Z,77.27
2023-04-23T22:53:47.367Z,76.74
2023-04-23T22:56:13.739Z,76.71
2023-04-23T22:58:40.270Z,76.38
2023-04-23T23:01:06.727Z,77.17
2023-04-23T23:03:33.213Z,77.03
2023-04-23T23:05:59.625Z,76.71
2023-04-23T23:08:25.993Z,77.21
2023-04-23T23:10:52.418Z,77.23
2023-04-23T23:13:18.934Z,77.04
2023-04-23T23:15:45.350Z,76.38
2023-04-23T23:18:12.254Z,75.80
2023-04-23T23:20:40.288Z,76.54
2023-04-23T23:23:06.870Z,76.33
2023-04-23T23:25:33.628Z,75.69
2023-04-23T23:28:00.103Z,75.56
2023-04-23T23:30:26.673Z,75.44
2023-04-23T23:32:53.102Z,76.57
2023-04-23T23:35:19.662Z,76.02
2023-04-23T23:37:46.494Z,74.91
2023-04-23T23:40:12.952Z,74.97
2023-04-23T23:42:39.373Z,75.27
2023-04-23T23:45:06.979Z,75.14
2023-04-23T23:47:33.657Z,75.50
2023-04-23T23:50:00.214Z,75.32
2023-04-23T23:52:26.660Z,75.64
2023-04-23T23:54:53.062Z,75.48
2023-04-23T23:57:19.489Z,74.86
2023-04-23T23:59:46.918Z,74.16
